Terminal Aerodrome Forecast
Issued by NWS

Home | Current Version | Previous Version | Text Only | Print | Product List | Glossary On
Versions: 1 2 3 4 5 6 7 8 9 10 11 12 13 14 15 16 17 18 19 20 21 22 23 24 25 26 27 28 29 30 31 32 33 34 35 36 37 38 39 40 41 42 43 44 45 46 47 48
000
FTUS43 KMKX 281145
TAFUES
TAF
KUES 281145Z 2812/2912 00000KT P6SM FEW250
     FM281600 12006KT P6SM BKN250
     FM282100 11008KT P6SM VCTS SCT050CB BKN250
     FM282300 10006KT 4SM -TSRA SCT030 BKN040CB OVC080
     FM290200 12005KT 6SM -SHRA VCTS BKN030CB OVC050
     FM290700 13005KT P6SM VCSH SCT035 OVC060=

USA.gov is the U.S. government's official web portal to all federal, state and local government web resources and services.